Time;durP1;ratioP1;P1;durP2;ratioP2;P2;SDS_P1;SDS_P2;PMS_P1;PMS_P2;Temp;Humidity;BMP_temperature;BMP_pressure;BME280_temperature;BME280_humidity;BME280_pressure;Samples;Min_cycle;Max_cycle;Signal;HPM_P1;HPM_P2
2023/06/24 00:00:52;;;;;;;17.77;12.60;;;14.80;99.90;;;13.78;100.00;101683.38;4918537;29;19919;-76
2023/06/24 00:03:17;;;;;;;21.85;11.80;;;14.80;99.90;;;13.80;100.00;101694.75;4915992;29;20044;-76
2023/06/24 00:05:49;;;;;;;18.23;13.25;;;14.80;99.90;;;13.84;100.00;101691.91;4893729;29;20549;-76
2023/06/24 00:08:19;;;;;;;23.40;13.60;;;14.80;99.90;;;13.85;100.00;101695.44;4879880;29;20039;-76
2023/06/24 00:10:48;;;;;;;24.05;12.55;;;14.90;99.90;;;13.86;100.00;101699.78;4901156;29;20047;-76
2023/06/24 00:13:16;;;;;;;23.02;12.73;;;14.90;99.90;;;13.86;100.00;101700.63;4901435;29;20062;-77
2023/06/24 00:15:42;;;;;;;23.35;13.50;;;14.90;99.90;;;13.89;100.00;101700.50;4886262;29;20036;-77
2023/06/24 00:18:10;;;;;;;24.42;12.88;;;14.90;99.90;;;13.90;100.00;101704.00;4887249;29;20095;-77
2023/06/24 00:20:36;;;;;;;19.27;13.20;;;14.90;99.90;;;13.93;100.00;101709.16;4885277;29;20049;-76
2023/06/24 00:23:02;;;;;;;26.88;14.43;;;14.90;99.90;;;13.93;100.00;101709.16;4891748;29;20024;-76
2023/06/24 00:25:29;;;;;;;24.27;13.73;;;14.90;99.90;;;13.95;100.00;101713.47;4884893;29;20438;-78
2023/06/24 00:27:55;;;;;;;26.02;13.88;;;14.90;99.90;;;13.97;100.00;101715.19;4878980;29;20069;-78
2023/06/24 00:30:21;;;;;;;25.42;13.40;;;15.00;99.90;;;13.98;100.00;101709.81;4885717;29;20032;-78
2023/06/24 00:32:47;;;;;;;22.25;14.15;;;15.00;99.90;;;13.98;100.00;101728.38;4904358;29;20537;-78
2023/06/24 00:35:14;;;;;;;20.95;13.10;;;15.00;99.90;;;13.97;100.00;101729.28;4887005;29;20048;-78
2023/06/24 00:37:42;;;;;;;24.40;13.65;;;15.00;99.90;;;14.00;100.00;101731.81;4860971;29;20095;-78
2023/06/24 00:40:10;;;;;;;22.30;13.48;;;15.00;99.90;;;14.01;100.00;101741.44;4875370;29;20065;-79
2023/06/24 00:42:37;;;;;;;25.80;13.57;;;15.00;99.90;;;14.00;100.00;101737.09;4907929;29;20043;-77
2023/06/24 00:45:04;;;;;;;26.58;14.98;;;15.00;99.90;;;14.01;100.00;101743.25;4900967;29;20123;-78
2023/06/24 00:47:32;;;;;;;28.35;15.73;;;15.00;99.90;;;14.01;100.00;101748.53;4885647;29;20044;-78
2023/06/24 00:49:58;;;;;;;26.92;15.40;;;15.00;99.90;;;13.97;100.00;101745.16;4901981;29;20051;-78
2023/06/24 00:52:23;;;;;;;18.58;13.80;;;14.90;99.90;;;13.93;100.00;101743.56;4892800;29;20024;-78
2023/06/24 00:54:50;;;;;;;27.38;15.10;;;14.90;99.90;;;13.91;100.00;101751.59;4902094;29;20032;-78
2023/06/24 00:57:17;;;;;;;21.85;14.82;;;14.90;99.90;;;13.87;100.00;101750.03;4902827;29;20044;-78
2023/06/24 00:59:45;;;;;;;28.75;15.68;;;14.90;99.90;;;13.85;100.00;101751.88;4900515;29;20036;-78
2023/06/24 01:02:14;;;;;;;27.25;15.73;;;14.90;99.90;;;13.84;100.00;101755.44;4884209;29;20051;-75
2023/06/24 01:04:40;;;;;;;26.52;15.77;;;14.90;99.90;;;13.82;100.00;101759.97;4884215;29;20091;-76
2023/06/24 01:07:07;;;;;;;27.25;16.00;;;14.80;99.90;;;13.79;100.00;101760.09;4892278;29;20032;-76
2023/06/24 01:09:33;;;;;;;25.77;15.73;;;14.80;99.90;;;13.80;100.00;101755.63;4868605;29;20036;-76
2023/06/24 01:11:59;;;;;;;25.55;15.18;;;14.90;99.90;;;13.81;100.00;101754.72;4893697;29;20134;-76
2023/06/24 01:14:25;;;;;;;26.73;15.88;;;14.80;99.90;;;13.77;100.00;101753.13;4877232;29;20036;-76
2023/06/24 01:17:04;;;;;;;28.25;15.07;;;14.80;99.90;;;13.71;100.00;101757.78;4891784;29;20043;-75
2023/06/24 01:20:15;;;;;;;24.30;14.68;;;14.70;99.90;;;13.69;100.00;101757.00;4901579;29;20101;-75
2023/06/24 01:22:46;;;;;;;24.75;15.10;;;14.70;99.90;;;13.63;100.00;101753.72;4889081;28;20046;-78
2023/06/24 01:26:21;;;;;;;28.00;15.25;;;14.70;99.90;;;13.56;100.00;101753.13;4899523;29;20052;-76
2023/06/24 01:29:44;;;;;;;24.63;14.90;;;14.70;99.90;;;13.55;100.00;101759.34;4895988;29;20036;-77
2023/06/24 01:32:36;;;;;;;25.10;13.30;;;14.60;99.90;;;13.53;100.00;101758.56;4886058;29;20133;-76
2023/06/24 01:35:12;;;;;;;24.55;13.27;;;14.60;99.90;;;13.50;100.00;101764.00;4882729;29;20032;-76
2023/06/24 01:37:43;;;;;;;;;;;14.60;99.90;;;13.46;100.00;101752.66;4895304;29;20552;-78
2023/06/24 01:40:12;;;;;;;23.52;13.77;;;14.60;99.90;;;13.48;100.00;101757.91;4884487;29;19942;-76
2023/06/24 01:42:48;;;;;;;21.35;13.52;;;14.60;99.90;;;13.53;100.00;101750.63;4885775;29;20036;-76
2023/06/24 01:45:24;;;;;;;23.50;14.07;;;14.60;99.90;;;13.57;100.00;101752.22;4898865;28;20052;-76
2023/06/24 01:48:17;;;;;;;26.35;15.35;;;14.60;99.90;;;13.59;100.00;101758.31;4912705;29;20036;-76
2023/06/24 01:51:07;;;;;;;26.67;15.60;;;14.60;99.90;;;13.59;100.00;101747.72;4894951;29;20041;-75
2023/06/24 01:53:39;;;;;;;25.33;13.90;;;14.60;99.90;;;13.61;100.00;101755.59;4903481;29;20039;-76
2023/06/24 01:56:08;;;;;;;29.58;15.10;;;14.70;99.90;;;13.61;100.00;101750.31;4890850;29;20036;-76
2023/06/24 01:58:35;;;;;;;26.45;14.90;;;14.60;99.90;;;13.59;100.00;101750.38;4903161;29;20102;-76
2023/06/24 02:01:03;;;;;;;25.13;14.00;;;14.60;99.90;;;13.58;100.00;101755.72;4902430;29;20051;-76
2023/06/24 02:03:36;;;;;;;27.73;15.13;;;14.60;99.90;;;13.58;100.00;101755.72;4902350;29;20050;-76
2023/06/24 02:06:04;;;;;;;31.15;14.30;;;14.60;99.90;;;13.57;100.00;101756.66;4888991;29;20122;-75
2023/06/24 02:08:35;;;;;;;31.38;14.95;;;14.60;99.90;;;13.53;100.00;101755.91;4897896;29;20043;-75
2023/06/24 02:11:05;;;;;;;28.50;14.45;;;14.60;99.90;;;13.48;100.00;101760.56;4894488;29;20058;-76
2023/06/24 02:13:35;;;;;;;27.55;14.80;;;14.50;99.90;;;13.43;100.00;101766.00;4892507;29;20617;-76
2023/06/24 02:16:07;;;;;;;29.85;15.30;;;14.50;99.90;;;13.40;100.00;101765.31;4893884;29;20119;-76
2023/06/24 02:18:37;;;;;;;24.52;13.60;;;14.40;99.90;;;13.38;100.00;101753.91;4902486;29;20131;-76
2023/06/24 02:21:04;;;;;;;23.20;14.25;;;14.40;99.90;;;13.30;100.00;101757.75;4879980;29;20040;-76
2023/06/24 02:23:33;;;;;;;26.30;15.48;;;14.30;99.90;;;13.26;100.00;101761.41;4883938;29;20397;-76
2023/06/24 02:26:01;;;;;;;29.35;14.38;;;14.30;99.90;;;13.22;100.00;101757.19;4875635;29;20409;-75
2023/06/24 02:28:28;;;;;;;25.75;14.35;;;14.30;99.90;;;13.19;100.00;101754.63;4901420;29;20120;-75
2023/06/24 02:30:55;;;;;;;27.33;14.70;;;14.20;99.90;;;13.14;100.00;101752.19;4890308;29;20584;-76
2023/06/24 02:33:26;;;;;;;28.60;15.75;;;14.20;99.90;;;13.15;100.00;101753.03;4900672;29;20394;-76
2023/06/24 02:35:52;;;;;;;23.75;13.65;;;14.20;99.90;;;13.14;100.00;101756.63;4888605;29;20673;-76
2023/06/24 02:38:18;;;;;;;25.15;14.95;;;14.20;99.90;;;13.16;100.00;101754.78;4890418;29;20043;-75
2023/06/24 02:40:45;;;;;;;26.77;14.93;;;14.20;99.90;;;13.18;100.00;101747.63;4894202;29;20101;-76
2023/06/24 02:43:12;;;;;;;19.65;13.13;;;14.20;99.90;;;13.19;100.00;101761.72;4895826;29;20036;-76
2023/06/24 02:45:41;;;;;;;28.38;14.85;;;14.20;99.90;;;13.23;100.00;101771.25;4888952;29;20762;-76
2023/06/24 02:48:09;;;;;;;31.27;15.48;;;14.20;99.90;;;13.25;100.00;101764.97;4869324;29;20042;-75
2023/06/24 02:50:37;;;;;;;26.92;14.68;;;14.20;99.90;;;13.27;100.00;101768.41;4902333;29;20410;-76
2023/06/24 02:53:04;;;;;;;30.25;14.55;;;14.20;99.90;;;13.25;100.00;101766.75;4876958;29;20032;-75
2023/06/24 02:55:32;;;;;;;29.15;14.48;;;14.30;99.90;;;13.26;100.00;101769.34;4893647;29;20471;-76
2023/06/24 02:57:58;;;;;;;25.83;14.82;;;14.20;99.90;;;13.27;100.00;101776.34;4879158;29;20032;-76
2023/06/24 03:00:24;;;;;;;30.00;13.75;;;14.30;99.90;;;13.30;100.00;101772.75;4895711;29;20390;-78
2023/06/24 03:02:50;;;;;;;22.10;13.23;;;14.30;99.90;;;13.34;100.00;101775.19;4886048;29;20100;-78
2023/06/24 03:05:18;;;;;;;29.63;13.93;;;14.40;99.90;;;13.39;100.00;101772.38;4886676;29;20541;-76
2023/06/24 03:07:46;;;;;;;23.40;12.77;;;14.40;99.90;;;13.48;100.00;101782.56;4894229;29;20047;-75
2023/06/24 03:10:14;;;;;;;21.08;13.60;;;14.50;99.90;;;13.52;100.00;101775.38;4888074;29;20047;-75
2023/06/24 03:12:39;;;;;;;25.67;13.20;;;14.50;99.90;;;13.58;100.00;101787.47;4883599;29;20421;-76
2023/06/24 03:15:06;;;;;;;25.35;12.93;;;14.60;99.90;;;13.64;100.00;101788.06;4905137;29;20036;-75
2023/06/24 03:17:32;;;;;;;31.98;13.07;;;14.60;99.90;;;13.71;100.00;101796.59;4893685;29;20493;-76
2023/06/24 03:19:58;;;;;;;23.95;13.20;;;14.70;99.90;;;13.78;100.00;101798.09;4871740;29;20107;-75
2023/06/24 03:22:24;;;;;;;;;;;14.70;99.90;;;13.85;100.00;101798.69;4888080;29;20124;-75
2023/06/24 03:24:55;;;;;;;21.45;12.63;;;14.80;99.90;;;13.94;100.00;101795.63;4894356;29;20029;-76
2023/06/24 03:27:21;;;;;;;26.15;12.32;;;14.90;99.90;;;14.00;100.00;101805.94;4909698;29;20040;-76
2023/06/24 03:29:47;;;;;;;28.13;12.23;;;15.00;99.90;;;14.08;100.00;101810.88;4886368;29;20036;-76
2023/06/24 03:32:13;;;;;;;27.08;12.20;;;15.00;99.90;;;14.18;100.00;101816.66;4892818;29;20445;-75
2023/06/24 03:34:39;;;;;;;22.55;12.65;;;15.10;99.90;;;14.26;100.00;101806.59;4903122;29;20107;-75
2023/06/24 03:37:05;;;;;;;;;;;15.10;99.90;;;14.35;100.00;101814.97;4892826;29;20064;-75
2023/06/24 03:39:31;;;;;;;28.02;12.05;;;15.40;99.90;;;14.50;100.00;101813.41;4901091;29;19919;-76
2023/06/24 03:41:56;;;;;;;;;;;15.40;99.90;;;15.26;100.00;101821.34;4886434;29;20424;-76
2023/06/24 03:44:22;;;;;;;20.77;10.77;;;16.90;99.90;;;16.02;100.00;101826.41;4910124;29;19919;-76
2023/06/24 03:46:48;;;;;;;;;;;17.00;99.90;;;17.06;99.44;101827.91;4886865;29;20473;-75
2023/06/24 03:49:13;;;;;;;17.50;10.80;;;18.70;99.90;;;18.01;90.71;101826.84;4888669;29;19933;-76
2023/06/24 03:51:39;;;;;;;;;;;18.80;99.90;;;18.72;85.45;101830.50;4875281;28;20048;-76
2023/06/24 03:54:05;;;;;;;17.20;9.60;;;20.00;99.90;;;19.36;79.81;101834.34;4914796;29;19974;-76
2023/06/24 03:56:31;;;;;;;20.42;9.75;;;20.60;99.90;;;19.84;76.63;101841.88;4876858;29;20032;-76
2023/06/24 03:59:00;;;;;;;18.58;11.00;;;21.20;99.90;;;20.39;73.96;101839.88;4901431;29;20043;-75
2023/06/24 04:01:25;;;;;;;20.10;8.68;;;21.70;99.90;;;20.95;71.80;101847.50;4893962;29;20036;-76
2023/06/24 04:03:51;;;;;;;18.00;9.38;;;21.70;99.90;;;20.76;71.02;101846.19;4894470;28;20496;-76
2023/06/24 04:06:17;;;;;;;;;;;21.70;99.90;;;20.78;70.74;101843.41;4898379;29;20028;-75
2023/06/24 04:08:43;;;;;;;19.55;8.90;;;21.60;99.90;;;20.88;70.54;101849.78;4901794;29;20396;-76
2023/06/24 04:11:09;;;;;;;;;;;21.60;99.90;;;21.42;68.84;101848.53;4894234;29;20036;-76
2023/06/24 04:13:35;;;;;;;14.17;8.83;;;22.50;99.90;;;22.12;67.13;101856.56;4884184;29;19923;-75
2023/06/24 04:16:01;;;;;;;16.88;8.50;;;23.00;99.90;;;22.67;64.99;101859.41;4900326;29;20048;-75
2023/06/24 04:18:29;;;;;;;25.77;9.35;;;23.20;99.90;;;22.70;64.34;101853.81;4901474;29;20048;-76
2023/06/24 04:20:55;;;;;;;17.73;8.15;;;23.40;99.90;;;22.96;63.51;101866.97;4886095;29;20040;-76
2023/06/24 04:23:21;;;;;;;15.43;8.15;;;23.50;99.90;;;23.23;62.85;101873.78;4878930;29;20090;-75
2023/06/24 04:25:47;;;;;;;;;;;23.60;99.90;;;23.23;62.08;101880.00;4892561;29;20044;-77
2023/06/24 04:28:12;;;;;;;17.63;8.25;;;23.80;99.90;;;23.50;61.46;101882.25;4906354;29;19967;-75
2023/06/24 04:30:39;;;;;;;;;;;23.80;99.90;;;22.39;62.35;101874.19;4897329;29;20423;-75
2023/06/24 04:33:07;;;;;;;18.33;8.27;;;23.30;99.90;;;23.05;62.53;101878.84;4905869;29;19919;-75
2023/06/24 04:35:33;;;;;;;19.45;8.73;;;23.50;99.90;;;23.39;61.67;101886.81;4892335;29;20041;-75
2023/06/24 04:37:59;;;;;;;13.43;8.18;;;24.00;99.90;;;24.51;58.90;101904.25;4877476;29;20131;-75
2023/06/24 04:40:25;;;;;;;20.55;8.20;;;24.70;99.90;;;25.45;57.27;101904.84;4899194;29;20078;-75
2023/06/24 04:42:51;;;;;;;16.83;7.70;;;25.50;99.90;;;26.36;54.45;101908.06;4901021;29;20039;-76
2023/06/24 04:45:17;;;;;;;20.20;8.30;;;26.10;99.90;;;27.05;52.93;101930.28;4888536;29;20486;-75
2023/06/24 04:47:43;;;;;;;;;;;26.10;99.90;;;27.61;51.58;101936.50;4891482;29;20035;-76
2023/06/24 04:50:09;;;;;;;17.57;8.10;;;26.90;99.90;;;27.71;51.21;101936.41;4887191;29;19926;-76
2023/06/24 04:52:36;;;;;;;15.57;8.20;;;27.30;99.90;;;28.29;50.15;101949.44;4900196;29;20319;-75
2023/06/24 04:55:01;;;;;;;14.45;7.50;;;27.40;99.90;;;28.21;49.63;101954.81;4907363;29;20742;-75
2023/06/24 04:57:34;;;;;;;17.38;8.05;;;27.60;99.90;;;28.71;49.25;101956.88;4898147;29;20036;-75
2023/06/24 05:00:00;;;;;;;18.52;8.32;;;27.70;99.60;;;28.83;48.63;101955.59;4909709;29;20044;-76
2023/06/24 05:02:25;;;;;;;19.30;7.10;;;27.90;99.00;;;28.82;47.98;101962.00;4911228;29;20130;-75
2023/06/24 05:04:55;;;;;;;12.40;6.50;;;28.30;99.00;;;29.65;46.66;101966.72;4897332;29;20043;-75
2023/06/24 05:07:21;;;;;;;16.35;7.13;;;28.60;98.50;;;30.00;46.37;101970.19;4885044;28;20123;-76
2023/06/24 05:09:48;;;;;;;17.40;7.05;;;28.90;98.50;;;30.35;45.87;101967.31;4882995;29;20050;-75
2023/06/24 05:12:14;;;;;;;13.13;7.05;;;29.30;96.90;;;30.70;44.33;101976.06;4880087;29;20067;-75
2023/06/24 05:14:39;;;;;;;16.70;7.15;;;29.50;96.80;;;31.12;44.04;101999.38;4898974;29;20944;-76
2023/06/24 05:17:06;;;;;;;10.63;6.45;;;29.60;96.10;;;30.80;43.93;101996.59;4914922;29;20171;-74
2023/06/24 05:19:32;;;;;;;11.10;6.30;;;29.40;96.30;;;30.44;44.56;101980.69;4889755;29;20048;-75
2023/06/24 05:21:58;;;;;;;15.70;6.97;;;29.20;95.80;;;30.07;44.94;101986.63;4889596;29;20115;-74
2023/06/24 05:24:24;;;;;;;15.50;6.82;;;29.30;96.20;;;30.66;44.29;101998.13;4894085;29;20044;-78
2023/06/24 05:26:51;;;;;;;14.57;7.10;;;29.40;96.00;;;31.07;43.49;102006.19;4890348;29;20062;-75
2023/06/24 05:29:18;;;;;;;20.45;7.45;;;29.70;95.70;;;31.14;42.69;102008.22;4904981;29;20048;-76
2023/06/24 05:31:44;;;;;;;9.63;6.90;;;29.90;95.80;;;31.62;42.05;102018.06;4865127;29;20127;-75
2023/06/24 05:34:10;;;;;;;15.10;6.50;;;30.10;95.30;;;31.92;41.56;102026.34;4881995;29;20040;-75
2023/06/24 05:36:38;;;;;;;11.38;6.47;;;30.20;94.90;;;31.97;41.73;102023.94;4899376;29;20542;-76
2023/06/24 05:39:07;;;;;;;12.65;6.72;;;30.40;94.50;;;32.15;41.27;102026.38;4896659;29;20040;-76
2023/06/24 05:41:33;;;;;;;10.95;6.82;;;30.50;94.30;;;32.31;40.91;102025.38;4903084;29;20042;-75
2023/06/24 05:44:11;;;;;;;12.48;6.57;;;30.60;94.60;;;32.48;40.44;102040.56;4898216;29;20040;-76
2023/06/24 05:46:37;;;;;;;14.25;6.60;;;30.80;93.30;;;32.28;40.52;102042.94;4871902;29;20048;-75
2023/06/24 05:49:03;;;;;;;15.30;6.68;;;31.00;94.30;;;32.81;40.46;102051.19;4902502;29;20041;-76
2023/06/24 05:51:29;;;;;;;17.08;6.88;;;31.30;93.00;;;32.99;39.96;102061.72;4896433;29;20043;-76
2023/06/24 05:53:55;;;;;;;10.82;6.30;;;31.70;93.20;;;33.62;38.69;102064.06;4881601;29;20058;-75
2023/06/24 05:56:25;;;;;;;10.98;6.70;;;32.10;92.90;;;33.97;38.52;102075.16;4882056;29;20726;-76
2023/06/24 05:58:50;;;;;;;9.45;6.68;;;32.50;92.30;;;34.03;38.37;102071.66;4896205;29;20076;-77
2023/06/24 06:01:16;;;;;;;13.73;7.00;;;32.60;91.70;;;33.79;37.97;102068.25;4879712;29;20062;-76
2023/06/24 06:03:42;;;;;;;15.40;6.63;;;32.90;91.30;;;34.32;37.34;102059.75;4900217;28;20063;-76
2023/06/24 06:06:08;;;;;;;12.85;6.45;;;32.90;90.70;;;33.90;37.86;102059.53;4904742;29;20040;-76
2023/06/24 06:08:34;;;;;;;18.50;6.85;;;32.60;91.50;;;33.57;38.89;102048.22;4901062;29;20059;-76
2023/06/24 06:11:04;;;;;;;15.23;7.28;;;32.90;91.30;;;34.37;37.75;102059.19;4898498;29;20067;-76
2023/06/24 06:13:30;;;;;;;11.98;7.10;;;33.40;91.30;;;35.10;36.48;102065.19;4893309;29;20044;-77
2023/06/24 06:15:57;;;;;;;12.05;6.88;;;33.90;88.70;;;35.24;35.77;102064.22;4896190;29;20119;-77
2023/06/24 06:18:23;;;;;;;14.63;6.43;;;34.20;87.50;;;35.35;35.34;102068.28;4886399;28;20036;-76
2023/06/24 06:20:49;;;;;;;15.60;6.80;;;34.30;86.80;;;35.25;35.41;102063.19;4906638;29;20040;-76
2023/06/24 06:23:16;;;;;;;15.70;6.45;;;34.40;87.90;;;35.40;35.36;102067.66;4891709;29;20164;-76
2023/06/24 06:25:50;;;;;;;13.77;6.35;;;34.10;84.80;;;34.63;35.31;102064.88;4893026;29;20513;-77
2023/06/24 06:28:16;;;;;;;15.63;6.25;;;34.10;86.10;;;34.89;35.37;102068.84;4905306;29;20157;-76
2023/06/24 06:30:43;;;;;;;10.10;6.60;;;34.20;87.20;;;35.17;35.54;102071.56;4908185;29;20577;-77
2023/06/24 06:33:09;;;;;;;20.58;6.40;;;34.50;86.00;;;35.28;35.41;102068.25;4885740;29;20114;-77
2023/06/24 06:35:37;;;;;;;10.40;5.93;;;34.50;84.10;;;35.07;35.14;102060.94;4886959;29;20060;-76
2023/06/24 06:38:04;;;;;;;10.73;6.43;;;34.50;84.60;;;35.00;35.42;102057.31;4895386;29;20036;-76
2023/06/24 06:40:30;;;;;;;10.90;5.90;;;33.80;82.40;;;32.10;38.16;102033.41;4916072;29;20056;-77
2023/06/24 06:42:56;;;;;;;12.93;6.30;;;32.60;86.20;;;31.55;39.50;102022.50;4903207;29;20064;-77
2023/06/24 06:45:22;;;;;;;11.27;6.28;;;32.00;87.70;;;32.17;38.97;102024.31;4893636;29;20063;-76
2023/06/24 06:47:50;;;;;;;15.23;6.43;;;32.20;88.20;;;32.98;38.18;102029.16;4880319;29;20062;-75
2023/06/24 06:50:16;;;;;;;11.55;6.15;;;32.60;88.30;;;32.43;38.36;102032.09;4903539;29;20094;-75
2023/06/24 06:52:42;;;;;;;9.57;6.22;;;32.00;86.50;;;30.45;40.83;102006.00;4917735;29;20039;-75
2023/06/24 06:55:09;;;;;;;13.75;6.05;;;31.20;89.50;;;30.53;41.68;102008.69;4903829;29;20044;-76
2023/06/24 06:57:35;;;;;;;13.23;6.72;;;30.40;90.20;;;28.80;43.96;101985.72;4902387;29;20104;-75
2023/06/24 07:00:01;;;;;;;12.60;6.13;;;29.80;91.30;;;29.33;43.55;101989.19;4905749;29;20446;-76
2023/06/24 07:02:27;;;;;;;16.35;6.13;;;30.10;91.60;;;30.78;41.77;101998.63;4894562;29;20040;-76
2023/06/24 07:04:53;;;;;;;9.50;5.50;;;30.90;90.80;;;31.76;39.48;102021.03;4884198;29;20100;-77
2023/06/24 07:07:19;;;;;;;12.60;6.18;;;31.70;90.30;;;32.79;38.01;102038.78;4917357;29;20044;-75
2023/06/24 07:09:46;;;;;;;12.70;6.38;;;32.30;87.20;;;33.05;37.07;102044.59;4903038;29;20096;-75
2023/06/24 07:12:13;;;;;;;8.65;5.22;;;33.00;86.10;;;33.70;36.74;102064.78;4895226;29;20036;-76
2023/06/24 07:14:39;;;;;;;10.77;5.97;;;33.90;87.60;;;35.04;35.27;102066.00;4910314;29;20040;-76
2023/06/24 07:17:05;;;;;;;13.68;5.72;;;34.40;84.50;;;35.06;34.89;102063.91;4902750;29;20039;-76
2023/06/24 07:19:31;;;;;;;11.50;5.13;;;34.30;82.30;;;33.48;35.95;102054.84;4884903;29;20423;-76
2023/06/24 07:21:57;;;;;;;11.07;5.47;;;33.50;81.70;;;32.49;37.42;102046.88;4891436;29;20051;-75
2023/06/24 07:24:30;;;;;;;9.98;5.40;;;32.80;83.30;;;31.99;38.44;102030.09;4890109;29;20044;-81
2023/06/24 07:26:55;;;;;;;8.77;5.15;;;32.20;85.10;;;31.08;39.00;102026.13;4907386;29;20027;-76
2023/06/24 07:29:21;;;;;;;12.02;5.70;;;31.40;85.90;;;30.51;40.59;102015.34;4900586;29;20055;-75
2023/06/24 07:31:47;;;;;;;8.32;4.80;;;30.60;86.30;;;29.13;41.53;101995.91;4912880;29;20062;-74
2023/06/24 07:34:13;;;;;;;10.75;5.22;;;29.70;88.80;;;28.31;43.21;101985.34;4908472;29;20122;-75
2023/06/24 07:36:39;;;;;;;8.70;5.13;;;29.20;90.40;;;28.74;42.76;101982.78;4886947;29;20044;-75
2023/06/24 07:39:05;;;;;;;8.60;5.75;;;29.00;90.80;;;28.43;43.63;101975.97;4880775;28;20036;-75
2023/06/24 07:41:32;;;;;;;10.13;5.38;;;29.00;90.60;;;29.37;42.52;101982.41;4885418;29;20132;-77
2023/06/24 07:43:58;;;;;;;8.95;4.85;;;29.50;90.30;;;30.18;41.46;101999.03;4900556;29;20637;-75
2023/06/24 07:46:26;;;;;;;8.15;5.50;;;30.10;90.10;;;30.56;40.50;101996.63;4901963;29;20035;-76
2023/06/24 07:48:52;;;;;;;7.72;4.80;;;30.40;88.60;;;30.22;39.87;101990.38;4902691;29;20066;-76
2023/06/24 07:51:18;;;;;;;8.27;5.10;;;30.30;89.80;;;30.13;41.18;101985.09;4895290;29;20052;-75
2023/06/24 07:53:44;;;;;;;7.18;5.13;;;30.20;89.30;;;30.16;40.79;101987.50;4893002;29;20039;-74
2023/06/24 07:56:10;;;;;;;10.10;5.57;;;30.00;90.00;;;29.56;41.95;101970.41;4886851;29;20059;-74
2023/06/24 07:58:37;;;;;;;7.80;5.50;;;29.50;90.30;;;29.15;42.80;101959.47;4902372;29;20115;-74
2023/06/24 08:01:04;;;;;;;9.48;5.13;;;29.50;90.50;;;29.72;41.75;101963.34;4892620;29;20072;-74
2023/06/24 08:03:30;;;;;;;9.10;5.20;;;29.80;90.30;;;30.25;40.95;101972.88;4906615;29;20035;-74
2023/06/24 08:05:56;;;;;;;14.30;5.55;;;30.30;90.70;;;30.90;40.23;101987.41;4879983;29;20501;-75
2023/06/24 08:08:22;;;;;;;14.55;5.75;;;30.70;89.50;;;30.99;40.29;101991.78;4916154;29;20083;-74
2023/06/24 08:10:48;;;;;;;8.80;4.90;;;30.60;87.40;;;30.56;39.69;101991.19;4889744;29;20035;-74
2023/06/24 08:13:14;;;;;;;12.00;4.80;;;30.40;87.30;;;30.05;39.92;101981.38;4908440;29;20504;-74
2023/06/24 08:15:40;;;;;;;10.05;5.38;;;29.90;87.90;;;29.14;41.47;101981.34;4878779;29;20507;-74
2023/06/24 08:18:05;;;;;;;16.00;5.07;;;29.40;89.30;;;28.70;42.98;101973.28;4903298;29;20036;-75
2023/06/24 08:20:31;;;;;;;9.65;5.07;;;28.90;90.70;;;28.00;43.65;101952.44;4903407;29;20048;-75
2023/06/24 08:22:57;;;;;;;9.85;5.22;;;28.50;91.10;;;27.83;44.01;101951.41;4901291;29;20033;-75
2023/06/24 08:25:23;;;;;;;10.15;5.38;;;28.00;91.30;;;26.99;45.96;101941.69;4887926;29;20130;-74
2023/06/24 08:27:49;;;;;;;8.63;5.55;;;27.40;92.50;;;26.46;47.38;101928.78;4883518;29;20123;-74
2023/06/24 08:30:15;;;;;;;9.85;5.20;;;26.80;92.40;;;25.54;48.22;101922.88;4893709;29;20051;-74
2023/06/24 08:32:41;;;;;;;9.65;5.65;;;26.20;93.20;;;24.97;49.82;101921.75;4892067;29;20051;-74
2023/06/24 08:35:09;;;;;;;10.82;5.50;;;25.90;94.30;;;25.25;50.26;101930.06;4897847;28;20047;-74
2023/06/24 08:37:36;;;;;;;8.02;4.93;;;25.90;94.70;;;25.79;48.97;101926.03;4889747;29;20040;-74
2023/06/24 08:40:04;;;;;;;11.13;5.28;;;26.20;94.70;;;26.31;48.92;101940.06;4899144;29;20405;-74
2023/06/24 08:42:30;;;;;;;7.85;4.93;;;26.70;93.80;;;26.71;47.86;101944.38;4887277;29;20040;-74
2023/06/24 08:44:59;;;;;;;6.60;4.63;;;26.90;92.50;;;26.67;46.98;101940.25;4887671;29;20525;-74
2023/06/24 08:47:27;;;;;;;15.88;5.10;;;27.10;93.20;;;26.74;47.92;101941.38;4893222;29;20146;-75
2023/06/24 08:50:03;;;;;;;10.85;5.20;;;27.30;93.20;;;26.98;46.80;101946.25;4894992;29;20071;-75
2023/06/24 08:52:31;;;;;;;8.52;4.30;;;27.10;92.10;;;26.48;46.99;101943.88;4899329;29;20040;-73
2023/06/24 08:54:59;;;;;;;7.45;3.88;;;27.10;92.60;;;26.72;46.68;101940.69;4907722;29;20043;-74
2023/06/24 08:57:26;;;;;;;9.50;4.13;;;27.10;93.30;;;26.73;47.52;101941.53;4901272;29;20761;-72
2023/06/24 08:59:53;;;;;;;8.85;4.45;;;27.10;93.00;;;26.84;47.27;101944.03;4903060;29;20520;-72
2023/06/24 09:02:19;;;;;;;6.22;3.75;;;27.30;93.90;;;26.97;47.97;101941.84;4903690;29;20032;-73
2023/06/24 09:04:45;;;;;;;31.85;6.35;;;27.30;92.90;;;26.87;47.55;101949.16;4920437;29;20070;-73
2023/06/24 09:07:23;;;;;;;7.30;3.78;;;27.50;92.60;;;27.20;46.06;101950.41;4905160;29;20067;-74
2023/06/24 09:09:51;;;;;;;22.25;5.57;;;27.70;92.30;;;27.55;45.94;101948.78;4902520;29;20036;-73
2023/06/24 09:12:17;;;;;;;5.95;3.83;;;27.80;91.70;;;27.31;45.36;101940.41;4891994;29;20043;-72
2023/06/24 09:14:52;;;;;;;8.20;3.55;;;27.80;92.20;;;27.62;45.37;101943.59;4902401;29;20032;-72
2023/06/24 09:17:22;;;;;;;5.97;4.03;;;27.90;91.30;;;27.49;44.79;101954.81;4902606;29;20032;-72
2023/06/24 09:19:51;;;;;;;6.85;3.80;;;28.00;91.90;;;27.68;45.12;101953.81;4888256;29;20870;-73
2023/06/24 09:22:20;;;;;;;5.72;4.07;;;28.00;91.40;;;27.51;45.06;101958.22;4894558;29;20047;-72
2023/06/24 09:24:48;;;;;;;9.60;3.95;;;28.00;92.20;;;27.56;45.00;101964.03;4901032;29;20043;-72
2023/06/24 09:27:16;;;;;;;7.65;3.70;;;28.00;91.80;;;27.63;45.16;101956.16;4887267;29;20044;-72
2023/06/24 09:29:44;;;;;;;7.95;4.25;;;27.90;90.50;;;27.25;45.31;101968.91;4900105;29;20044;-72
2023/06/24 09:32:13;;;;;;;11.90;4.05;;;27.80;91.70;;;27.15;45.98;101960.00;4903794;29;20414;-73
2023/06/24 09:34:39;;;;;;;5.18;3.72;;;27.60;91.90;;;26.97;45.84;101960.75;4903122;29;20600;-73
2023/06/24 09:37:06;;;;;;;14.23;3.80;;;27.60;91.30;;;26.93;46.26;101962.09;4913908;29;20039;-72
2023/06/24 09:39:41;;;;;;;8.10;4.07;;;27.40;91.80;;;26.77;45.72;101954.59;4885423;29;20040;-73
2023/06/24 09:42:11;;;;;;;5.90;3.35;;;27.40;90.80;;;26.70;45.25;101956.19;4899253;29;20517;-74
2023/06/24 09:44:37;;;;;;;6.85;3.08;;;27.40;91.80;;;27.08;44.40;101961.56;4895719;29;20501;-73
2023/06/24 09:47:08;;;;;;;6.97;3.25;;;27.60;91.70;;;27.26;44.97;101961.63;4897143;29;20044;-73
2023/06/24 09:49:34;;;;;;;7.28;3.58;;;27.60;92.20;;;27.24;45.18;101960.97;4895116;29;20039;-73
2023/06/24 09:52:06;;;;;;;6.43;3.40;;;27.70;91.30;;;27.29;44.82;101961.34;4898867;29;20039;-74
2023/06/24 09:54:35;;;;;;;6.82;3.70;;;27.70;90.60;;;27.14;44.48;101961.81;4905539;29;20044;-74
2023/06/24 09:57:13;;;;;;;6.43;3.47;;;27.60;91.30;;;27.13;45.09;101954.72;4898890;29;20074;-73
2023/06/24 09:59:41;;;;;;;4.97;3.47;;;27.80;90.80;;;27.45;43.49;101952.56;4918882;29;20642;-73
2023/06/24 10:02:12;;;;;;;7.30;3.50;;;27.80;91.00;;;27.36;45.12;101951.63;4896959;29;20040;-72
2023/06/24 10:04:41;;;;;;;5.47;3.00;;;27.90;90.80;;;27.50;43.97;101963.78;4901765;29;20113;-73
2023/06/24 10:07:10;;;;;;;3.30;2.53;;;27.90;89.50;;;27.54;43.52;101962.47;4902479;29;20040;-72
2023/06/24 10:09:38;;;;;;;8.32;2.97;;;28.10;91.20;;;27.67;44.07;101967.50;4899494;29;20051;-73